Time;durP1;ratioP1;P1;durP2;ratioP2;P2;SDS_P1;SDS_P2;PMS_P1;PMS_P2;Temp;Humidity;BMP_temperature;BMP_pressure;BME280_temperature;BME280_humidity;BME280_pressure;Samples;Min_cycle;Max_cycle;Signal;HPM_P1;HPM_P2
2019/12/21 00:00:14;;;;;;;1.95;0.8;;;;;;;5.79;80.07129;93486.75;;;;
2019/12/21 00:01:15;;;;;;;1.95;0.8;;;;;;;5.79;80.07129;93486.75;;;;
2019/12/21 00:02:16;;;;;;;1.95;0.8;;;;;;;5.79;80.07129;93486.75;;;;
2019/12/21 00:03:17;;;;;;;1.95;0.8;;;;;;;5.79;80.07129;93486.75;;;;
2019/12/21 00:04:18;;;;;;;1.95;0.8;;;;;;;5.79;80.07129;93486.75;;;;
2019/12/21 00:05:20;;;;;;;1.95;0.8;;;;;;;5.79;80.07129;93486.75;;;;
2019/12/21 00:06:21;;;;;;;1.95;0.8;;;;;;;5.79;80.07129;93486.75;;;;
2019/12/21 00:07:22;;;;;;;0.8;0.8;;;;;;;5.58;80.54883;93500;;;;
2019/12/21 00:08:23;;;;;;;0.8;0.8;;;;;;;5.58;80.54883;93500;;;;
2019/12/21 00:09:34;;;;;;;0.8;0.8;;;;;;;5.58;80.54883;93500;;;;
2019/12/21 00:10:44;;;;;;;0.8;0.8;;;;;;;5.58;80.54883;93500;;;;
2019/12/21 00:11:45;;;;;;;0.8;0.8;;;;;;;5.58;80.54883;93500;;;;
2019/12/21 00:12:46;;;;;;;0.8;0.8;;;;;;;5.58;80.54883;93500;;;;
2019/12/21 00:13:48;;;;;;;0.8;0.8;;;;;;;5.58;80.54883;93500;;;;
2019/12/21 00:14:49;;;;;;;0.8;0.8;;;;;;;5.58;80.54883;93500;;;;
2019/12/21 00:15:50;;;;;;;0.8;0.8;;;;;;;5.58;80.54883;93500;;;;
2019/12/21 00:16:51;;;;;;;0.8;0.8;;;;;;;5.58;80.54883;93500;;;;
2019/12/21 00:17:52;;;;;;;1.3;0.85;;;;;;;5.32;80.38574;93510.11;;;;
2019/12/21 00:18:54;;;;;;;1.3;0.85;;;;;;;5.32;80.38574;93510.11;;;;
2019/12/21 00:19:55;;;;;;;1.3;0.85;;;;;;;5.32;80.38574;93510.11;;;;
2019/12/21 00:20:56;;;;;;;1.3;0.85;;;;;;;5.32;80.38574;93510.11;;;;
2019/12/21 00:21:57;;;;;;;1.3;0.85;;;;;;;5.32;80.38574;93510.11;;;;
2019/12/21 00:22:58;;;;;;;1.3;0.85;;;;;;;5.32;80.38574;93510.11;;;;
2019/12/21 00:23:59;;;;;;;1.3;0.85;;;;;;;5.32;80.38574;93510.11;;;;
2019/12/21 00:25:01;;;;;;;1.3;0.85;;;;;;;5.32;80.38574;93510.11;;;;
2019/12/21 00:26:02;;;;;;;1.3;0.85;;;;;;;5.32;80.38574;93510.11;;;;
2019/12/21 00:27:03;;;;;;;1.3;0.85;;;;;;;5.32;80.38574;93510.11;;;;
2019/12/21 00:28:04;;;;;;;1.3;0.85;;;;;;;5.32;80.38574;93510.11;;;;
2019/12/21 00:29:05;;;;;;;0.9;0.8;;;;;;;5.15;81.43164;93515.89;;;;
2019/12/21 00:30:06;;;;;;;0.9;0.8;;;;;;;5.15;81.43164;93515.89;;;;
2019/12/21 00:31:08;;;;;;;0.9;0.8;;;;;;;5.15;81.43164;93515.89;;;;
2019/12/21 00:32:09;;;;;;;0.9;0.8;;;;;;;5.15;81.43164;93515.89;;;;
2019/12/21 00:33:10;;;;;;;0.9;0.8;;;;;;;5.15;81.43164;93515.89;;;;
2019/12/21 00:34:11;;;;;;;0.9;0.8;;;;;;;5.15;81.43164;93515.89;;;;
2019/12/21 00:35:12;;;;;;;0.9;0.8;;;;;;;5.15;81.43164;93515.89;;;;
2019/12/21 00:36:14;;;;;;;0.9;0.8;;;;;;;5.15;81.43164;93515.89;;;;
2019/12/21 00:37:15;;;;;;;0.9;0.8;;;;;;;5.15;81.43164;93515.89;;;;
2019/12/21 00:38:16;;;;;;;0.9;0.8;;;;;;;5.15;81.43164;93515.89;;;;
2019/12/21 00:39:17;;;;;;;0.9;0.8;;;;;;;4.92;81.48145;93507.65;;;;
2019/12/21 00:40:18;;;;;;;0.9;0.8;;;;;;;4.92;81.48145;93507.65;;;;
2019/12/21 00:41:19;;;;;;;0.9;0.8;;;;;;;4.92;81.48145;93507.65;;;;
2019/12/21 00:42:21;;;;;;;0.9;0.8;;;;;;;4.92;81.48145;93507.65;;;;
2019/12/21 00:43:22;;;;;;;0.9;0.8;;;;;;;4.92;81.48145;93507.65;;;;
2019/12/21 00:44:23;;;;;;;0.9;0.8;;;;;;;4.92;81.48145;93507.65;;;;
2019/12/21 00:45:24;;;;;;;0.9;0.8;;;;;;;4.92;81.48145;93507.65;;;;
2019/12/21 00:46:25;;;;;;;0.9;0.8;;;;;;;4.92;81.48145;93507.65;;;;
2019/12/21 00:47:26;;;;;;;0.9;0.8;;;;;;;4.92;81.48145;93507.65;;;;
2019/12/21 00:48:27;;;;;;;0.9;0.8;;;;;;;4.92;81.48145;93507.65;;;;
2019/12/21 00:49:28;;;;;;;1.2;0.7;;;;;;;4.74;82.45898;93502.98;;;;
2019/12/21 00:50:30;;;;;;;1.2;0.7;;;;;;;4.74;82.45898;93502.98;;;;
2019/12/21 00:51:31;;;;;;;1.2;0.7;;;;;;;4.74;82.45898;93502.98;;;;
2019/12/21 00:52:32;;;;;;;1.2;0.7;;;;;;;4.74;82.45898;93502.98;;;;
2019/12/21 00:53:33;;;;;;;1.2;0.7;;;;;;;4.74;82.45898;93502.98;;;;
2019/12/21 00:54:34;;;;;;;1.2;0.7;;;;;;;4.74;82.45898;93502.98;;;;
2019/12/21 00:55:36;;;;;;;1.2;0.7;;;;;;;4.74;82.45898;93502.98;;;;
2019/12/21 00:56:37;;;;;;;1.2;0.7;;;;;;;4.74;82.45898;93502.98;;;;
2019/12/21 00:57:38;;;;;;;1.2;0.7;;;;;;;4.74;82.45898;93502.98;;;;
2019/12/21 00:58:39;;;;;;;1.2;0.7;;;;;;;4.74;82.45898;93502.98;;;;
2019/12/21 00:59:40;;;;;;;1.2;0.7;;;;;;;4.74;82.45898;93502.98;;;;
2019/12/21 01:00:41;;;;;;;0.65;0.65;;;;;;;4.55;82.97852;93487.44;;;;
2019/12/21 01:01:43;;;;;;;0.65;0.65;;;;;;;4.55;82.97852;93487.44;;;;
2019/12/21 01:02:44;;;;;;;0.65;0.65;;;;;;;4.55;82.97852;93487.44;;;;
2019/12/21 01:03:45;;;;;;;0.65;0.65;;;;;;;4.55;82.97852;93487.44;;;;
2019/12/21 01:04:46;;;;;;;0.65;0.65;;;;;;;4.55;82.97852;93487.44;;;;
2019/12/21 01:05:47;;;;;;;0.65;0.65;;;;;;;4.55;82.97852;93487.44;;;;
2019/12/21 01:06:48;;;;;;;0.65;0.65;;;;;;;4.55;82.97852;93487.44;;;;
2019/12/21 01:07:50;;;;;;;0.65;0.65;;;;;;;4.55;82.97852;93487.44;;;;
2019/12/21 01:08:51;;;;;;;0.65;0.65;;;;;;;4.55;82.97852;93487.44;;;;
2019/12/21 01:09:54;;;;;;;0.65;0.65;;;;;;;4.55;82.97852;93487.44;;;;
2019/12/21 01:10:55;;;;;;;0.6;0.6;;;;;;;4.45;83.05371;93461.87;;;;
2019/12/21 01:11:57;;;;;;;0.6;0.6;;;;;;;4.45;83.05371;93461.87;;;;
2019/12/21 01:12:58;;;;;;;0.6;0.6;;;;;;;4.45;83.05371;93461.87;;;;
2019/12/21 01:13:59;;;;;;;0.6;0.6;;;;;;;4.45;83.05371;93461.87;;;;
2019/12/21 01:15:00;;;;;;;0.6;0.6;;;;;;;4.45;83.05371;93461.87;;;;
2019/12/21 01:16:01;;;;;;;0.6;0.6;;;;;;;4.45;83.05371;93461.87;;;;
2019/12/21 01:17:03;;;;;;;0.6;0.6;;;;;;;4.45;83.05371;93461.87;;;;
2019/12/21 01:18:04;;;;;;;0.6;0.6;;;;;;;4.45;83.05371;93461.87;;;;
2019/12/21 01:19:05;;;;;;;0.6;0.6;;;;;;;4.45;83.05371;93461.87;;;;
2019/12/21 01:20:06;;;;;;;0.6;0.6;;;;;;;4.45;83.05371;93461.87;;;;
2019/12/21 01:21:07;;;;;;;0.6;0.6;;;;;;;4.45;83.05371;93461.87;;;;
2019/12/21 01:22:09;;;;;;;0.5;0.5;;;;;;;4.38;83.25293;93455.77;;;;
2019/12/21 01:23:10;;;;;;;0.5;0.5;;;;;;;4.38;83.25293;93455.77;;;;
2019/12/21 01:24:11;;;;;;;0.5;0.5;;;;;;;4.38;83.25293;93455.77;;;;
2019/12/21 01:25:12;;;;;;;0.5;0.5;;;;;;;4.38;83.25293;93455.77;;;;
2019/12/21 01:26:13;;;;;;;0.5;0.5;;;;;;;4.38;83.25293;93455.77;;;;
2019/12/21 01:27:14;;;;;;;0.5;0.5;;;;;;;4.38;83.25293;93455.77;;;;
2019/12/21 01:28:15;;;;;;;0.5;0.5;;;;;;;4.38;83.25293;93455.77;;;;
2019/12/21 01:29:16;;;;;;;0.5;0.5;;;;;;;4.38;83.25293;93455.77;;;;
2019/12/21 01:30:18;;;;;;;0.5;0.5;;;;;;;4.38;83.25293;93455.77;;;;
2019/12/21 01:31:19;;;;;;;0.5;0.5;;;;;;;4.38;83.25293;93455.77;;;;
2019/12/21 01:32:20;;;;;;;0.6;0.6;;;;;;;4.35;83.6123;93464.39;;;;
2019/12/21 01:33:21;;;;;;;0.6;0.6;;;;;;;4.35;83.6123;93464.39;;;;
2019/12/21 01:34:22;;;;;;;0.6;0.6;;;;;;;4.35;83.6123;93464.39;;;;
2019/12/21 01:35:23;;;;;;;0.6;0.6;;;;;;;4.35;83.6123;93464.39;;;;
2019/12/21 01:36:25;;;;;;;0.6;0.6;;;;;;;4.35;83.6123;93464.39;;;;
2019/12/21 01:37:26;;;;;;;0.6;0.6;;;;;;;4.35;83.6123;93464.39;;;;
2019/12/21 01:38:27;;;;;;;0.6;0.6;;;;;;;4.35;83.6123;93464.39;;;;
2019/12/21 01:39:28;;;;;;;0.6;0.6;;;;;;;4.35;83.6123;93464.39;;;;
2019/12/21 01:40:29;;;;;;;0.6;0.6;;;;;;;4.35;83.6123;93464.39;;;;
2019/12/21 01:41:30;;;;;;;0.6;0.6;;;;;;;4.35;83.6123;93464.39;;;;
2019/12/21 01:42:32;;;;;;;0.7;0.7;;;;;;;4.29;84.0127;93489.28;;;;
2019/12/21 01:43:33;;;;;;;0.7;0.7;;;;;;;4.29;84.0127;93489.28;;;;
2019/12/21 01:44:34;;;;;;;0.7;0.7;;;;;;;4.29;84.0127;93489.28;;;;
2019/12/21 01:45:35;;;;;;;0.7;0.7;;;;;;;4.29;84.0127;93489.28;;;;
2019/12/21 01:46:36;;;;;;;0.7;0.7;;;;;;;4.29;84.0127;93489.28;;;;
2019/12/21 01:47:37;;;;;;;0.7;0.7;;;;;;;4.29;84.0127;93489.28;;;;
2019/12/21 01:48:38;;;;;;;0.7;0.7;;;;;;;4.29;84.0127;93489.28;;;;
2019/12/21 01:49:39;;;;;;;0.7;0.7;;;;;;;4.29;84.0127;93489.28;;;;
2019/12/21 01:50:41;;;;;;;0.7;0.7;;;;;;;4.29;84.0127;93489.28;;;;
2019/12/21 01:51:42;;;;;;;0.7;0.7;;;;;;;4.29;84.0127;93489.28;;;;
2019/12/21 01:52:43;;;;;;;0.7;0.7;;;;;;;4.29;84.0127;93489.28;;;;
2019/12/21 01:53:44;;;;;;;1;0.5;;;;;;;4.33;84.47266;93482;;;;
2019/12/21 01:54:45;;;;;;;1;0.5;;;;;;;4.33;84.47266;93482;;;;
2019/12/21 01:55:46;;;;;;;1;0.5;;;;;;;4.33;84.47266;93482;;;;
2019/12/21 01:56:47;;;;;;;1;0.5;;;;;;;4.33;84.47266;93482;;;;
2019/12/21 01:57:49;;;;;;;1;0.5;;;;;;;4.33;84.47266;93482;;;;
2019/12/21 01:58:50;;;;;;;1;0.5;;;;;;;4.33;84.47266;93482;;;;
2019/12/21 01:59:51;;;;;;;1;0.5;;;;;;;4.33;84.47266;93482;;;;
2019/12/21 02:00:52;;;;;;;1;0.5;;;;;;;4.33;84.47266;93482;;;;
2019/12/21 02:01:53;;;;;;;1;0.5;;;;;;;4.33;84.47266;93482;;;;
2019/12/21 02:02:55;;;;;;;1;0.5;;;;;;;4.33;84.47266;93482;;;;
2019/12/21 02:03:56;;;;;;;0.6;0.6;;;;;;;4.34;84.89551;93447.96;;;;
2019/12/21 02:04:57;;;;;;;0.6;0.6;;;;;;;4.34;84.89551;93447.96;;;;
2019/12/21 02:05:58;;;;;;;0.6;0.6;;;;;;;4.34;84.89551;93447.96;;;;
2019/12/21 02:06:59;;;;;;;0.6;0.6;;;;;;;4.34;84.89551;93447.96;;;;
2019/12/21 02:08:01;;;;;;;0.6;0.6;;;;;;;4.34;84.89551;93447.96;;;;
2019/12/21 02:09:03;;;;;;;0.6;0.6;;;;;;;4.34;84.89551;93447.96;;;;
2019/12/21 02:10:06;;;;;;;0.6;0.6;;;;;;;4.34;84.89551;93447.96;;;;
2019/12/21 02:11:08;;;;;;;0.6;0.6;;;;;;;4.34;84.89551;93447.96;;;;
2019/12/21 02:12:09;;;;;;;0.6;0.6;;;;;;;4.34;84.89551;93447.96;;;;
2019/12/21 02:13:10;;;;;;;0.6;0.6;;;;;;;4.34;84.89551;93447.96;;;;
2019/12/21 02:14:11;;;;;;;0.6;0.6;;;;;;;4.34;84.89551;93447.96;;;;
2019/12/21 02:15:12;;;;;;;1.5;0.6;;;;;;;4.4;84.9082;93466.62;;;;
2019/12/21 02:16:14;;;;;;;1.5;0.6;;;;;;;4.4;84.9082;93466.62;;;;
2019/12/21 02:17:15;;;;;;;1.5;0.6;;;;;;;4.4;84.9082;93466.62;;;;
2019/12/21 02:18:16;;;;;;;1.5;0.6;;;;;;;4.4;84.9082;93466.62;;;;
2019/12/21 02:19:17;;;;;;;1.5;0.6;;;;;;;4.4;84.9082;93466.62;;;;
2019/12/21 02:20:18;;;;;;;1.5;0.6;;;;;;;4.4;84.9082;93466.62;;;;
2019/12/21 02:21:19;;;;;;;1.5;0.6;;;;;;;4.4;84.9082;93466.62;;;;
2019/12/21 02:22:21;;;;;;;1.5;0.6;;;;;;;4.4;84.9082;93466.62;;;;
2019/12/21 02:23:22;;;;;;;1.5;0.6;;;;;;;4.4;84.9082;93466.62;;;;
2019/12/21 02:24:23;;;;;;;1.5;0.6;;;;;;;4.4;84.9082;93466.62;;;;
2019/12/21 02:25:24;;;;;;;0.6;0.6;;;;;;;4.41;84.89941;93458.47;;;;
2019/12/21 02:26:26;;;;;;;0.6;0.6;;;;;;;4.41;84.89941;93458.47;;;;
2019/12/21 02:27:27;;;;;;;0.6;0.6;;;;;;;4.41;84.89941;93458.47;;;;
2019/12/21 02:28:28;;;;;;;0.6;0.6;;;;;;;4.41;84.89941;93458.47;;;;
2019/12/21 02:29:29;;;;;;;0.6;0.6;;;;;;;4.41;84.89941;93458.47;;;;
2019/12/21 02:30:31;;;;;;;0.6;0.6;;;;;;;4.41;84.89941;93458.47;;;;
2019/12/21 02:31:32;;;;;;;0.6;0.6;;;;;;;4.41;84.89941;93458.47;;;;
2019/12/21 02:32:33;;;;;;;0.6;0.6;;;;;;;4.41;84.89941;93458.47;;;;
2019/12/21 02:33:34;;;;;;;0.6;0.6;;;;;;;4.41;84.89941;93458.47;;;;
2019/12/21 02:34:35;;;;;;;0.6;0.6;;;;;;;4.41;84.89941;93458.47;;;;
2019/12/21 02:35:37;;;;;;;0.65;0.6;;;;;;;4.47;85.1123;93458.32;;;;
2019/12/21 02:36:38;;;;;;;0.65;0.6;;;;;;;4.47;85.1123;93458.32;;;;
2019/12/21 02:37:39;;;;;;;0.65;0.6;;;;;;;4.47;85.1123;93458.32;;;;
2019/12/21 02:38:40;;;;;;;0.65;0.6;;;;;;;4.47;85.1123;93458.32;;;;
2019/12/21 02:39:42;;;;;;;0.65;0.6;;;;;;;4.47;85.1123;93458.32;;;;
2019/12/21 02:40:43;;;;;;;0.65;0.6;;;;;;;4.47;85.1123;93458.32;;;;
2019/12/21 02:41:44;;;;;;;0.65;0.6;;;;;;;4.47;85.1123;93458.32;;;;
2019/12/21 02:42:45;;;;;;;0.65;0.6;;;;;;;4.47;85.1123;93458.32;;;;
2019/12/21 02:43:46;;;;;;;0.65;0.6;;;;;;;4.47;85.1123;93458.32;;;;
2019/12/21 02:44:47;;;;;;;0.65;0.6;;;;;;;4.47;85.1123;93458.32;;;;
2019/12/21 02:45:49;;;;;;;0.65;0.6;;;;;;;4.47;85.1123;93458.32;;;;
2019/12/21 02:46:50;;;;;;;0.7;0.55;;;;;;;4.39;84.89355;93406.2;;;;
2019/12/21 02:47:51;;;;;;;0.7;0.55;;;;;;;4.39;84.89355;93406.2;;;;
2019/12/21 02:48:52;;;;;;;0.7;0.55;;;;;;;4.39;84.89355;93406.2;;;;
2019/12/21 02:49:53;;;;;;;0.7;0.55;;;;;;;4.39;84.89355;93406.2;;;;
2019/12/21 02:50:55;;;;;;;0.7;0.55;;;;;;;4.39;84.89355;93406.2;;;;
2019/12/21 02:51:56;;;;;;;0.7;0.55;;;;;;;4.39;84.89355;93406.2;;;;
2019/12/21 02:52:57;;;;;;;0.7;0.55;;;;;;;4.39;84.89355;93406.2;;;;
2019/12/21 02:53:58;;;;;;;0.7;0.55;;;;;;;4.39;84.89355;93406.2;;;;
2019/12/21 02:54:59;;;;;;;0.7;0.55;;;;;;;4.39;84.89355;93406.2;;;;
2019/12/21 02:56:01;;;;;;;0.7;0.55;;;;;;;4.39;84.89355;93406.2;;;;
2019/12/21 02:57:02;;;;;;;1.4;0.65;;;;;;;4.21;85.12305;93391.25;;;;
2019/12/21 02:58:03;;;;;;;1.4;0.65;;;;;;;4.21;85.12305;93391.25;;;;
2019/12/21 02:59:04;;;;;;;1.4;0.65;;;;;;;4.21;85.12305;93391.25;;;;
2019/12/21 03:00:05;;;;;;;1.4;0.65;;;;;;;4.21;85.12305;93391.25;;;;
2019/12/21 03:01:07;;;;;;;1.4;0.65;;;;;;;4.21;85.12305;93391.25;;;;
2019/12/21 03:02:08;;;;;;;1.4;0.65;;;;;;;4.21;85.12305;93391.25;;;;
2019/12/21 03:03:09;;;;;;;1.4;0.65;;;;;;;4.21;85.12305;93391.25;;;;
2019/12/21 03:04:10;;;;;;;1.4;0.65;;;;;;;4.21;85.12305;93391.25;;;;
2019/12/21 03:05:11;;;;;;;1.4;0.65;;;;;;;4.21;85.12305;93391.25;;;;
2019/12/21 03:06:13;;;;;;;1.4;0.65;;;;;;;4.21;85.12305;93391.25;;;;
2019/12/21 03:07:14;;;;;;;1.4;0.65;;;;;;;4.21;85.12305;93391.25;;;;
2019/12/21 03:08:15;;;;;;;1.25;0.9;;;;;;;3.94;85.35059;93390.41;;;;
2019/12/21 03:09:16;;;;;;;1.25;0.9;;;;;;;3.94;85.35059;93390.41;;;;
2019/12/21 03:10:17;;;;;;;1.25;0.9;;;;;;;3.94;85.35059;93390.41;;;;
2019/12/21 03:11:19;;;;;;;1.25;0.9;;;;;;;3.94;85.35059;93390.41;;;;
2019/12/21 03:12:20;;;;;;;1.25;0.9;;;;;;;3.94;85.35059;93390.41;;;;
2019/12/21 03:13:21;;;;;;;1.25;0.9;;;;;;;3.94;85.35059;93390.41;;;;
2019/12/21 03:14:23;;;;;;;1.25;0.9;;;;;;;3.94;85.35059;93390.41;;;;
2019/12/21 03:15:25;;;;;;;1.25;0.9;;;;;;;3.94;85.35059;93390.41;;;;
2019/12/21 03:16:26;;;;;;;1.25;0.9;;;;;;;3.94;85.35059;93390.41;;;;
2019/12/21 03:17:27;;;;;;;1.25;0.9;;;;;;;3.94;85.35059;93390.41;;;;
2019/12/21 03:18:29;;;;;;;2.95;1;;;;;;;3.67;85.91797;93383.92;;;;
2019/12/21 03:19:30;;;;;;;2.95;1;;;;;;;3.67;85.91797;93383.92;;;;
2019/12/21 03:20:31;;;;;;;2.95;1;;;;;;;3.67;85.91797;93383.92;;;;
2019/12/21 03:21:32;;;;;;;2.95;1;;;;;;;3.67;85.91797;93383.92;;;;
2019/12/21 03:22:33;;;;;;;2.95;1;;;;;;;3.67;85.91797;93383.92;;;;
2019/12/21 03:23:34;;;;;;;2.95;1;;;;;;;3.67;85.91797;93383.92;;;;
2019/12/21 03:24:36;;;;;;;2.95;1;;;;;;;3.67;85.91797;93383.92;;;;
2019/12/21 03:25:37;;;;;;;2.95;1;;;;;;;3.67;85.91797;93383.92;;;;
2019/12/21 03:26:38;;;;;;;2.95;1;;;;;;;3.67;85.91797;93383.92;;;;
2019/12/21 03:27:40;;;;;;;2.95;1;;;;;;;3.67;85.91797;93383.92;;;;
2019/12/21 03:28:41;;;;;;;1.5;0.8;;;;;;;3.54;87.08691;93391.85;;;;
2019/12/21 03:29:42;;;;;;;1.5;0.8;;;;;;;3.54;87.08691;93391.85;;;;
2019/12/21 03:30:56;;;;;;;1.5;0.8;;;;;;;3.54;87.08691;93391.85;;;;
2019/12/21 03:31:58;;;;;;;1.5;0.8;;;;;;;3.54;87.08691;93391.85;;;;
2019/12/21 03:32:59;;;;;;;1.5;0.8;;;;;;;3.54;87.08691;93391.85;;;;
2019/12/21 03:34:00;;;;;;;1.5;0.8;;;;;;;3.54;87.08691;93391.85;;;;
2019/12/21 03:35:01;;;;;;;1.5;0.8;;;;;;;3.54;87.08691;93391.85;;;;
2019/12/21 03:36:03;;;;;;;1.5;0.8;;;;;;;3.54;87.08691;93391.85;;;;
2019/12/21 03:37:04;;;;;;;1.5;0.8;;;;;;;3.54;87.08691;93391.85;;;;
2019/12/21 03:38:05;;;;;;;1.5;0.8;;;;;;;3.54;87.08691;93391.85;;;;
2019/12/21 03:39:06;;;;;;;1.5;0.8;;;;;;;3.54;87.08691;93391.85;;;;
2019/12/21 03:40:07;;;;;;;1;0.85;;;;;;;3.78;87.53516;93394.65;;;;
2019/12/21 03:41:09;;;;;;;1;0.85;;;;;;;3.78;87.53516;93394.65;;;;
2019/12/21 03:42:10;;;;;;;1;0.85;;;;;;;3.78;87.53516;93394.65;;;;
2019/12/21 03:43:12;;;;;;;1;0.85;;;;;;;3.78;87.53516;93394.65;;;;
2019/12/21 03:44:13;;;;;;;1;0.85;;;;;;;3.78;87.53516;93394.65;;;;
2019/12/21 03:45:14;;;;;;;1;0.85;;;;;;;3.78;87.53516;93394.65;;;;
2019/12/21 03:46:16;;;;;;;1;0.85;;;;;;;3.78;87.53516;93394.65;;;;
2019/12/21 03:47:19;;;;;;;1;0.85;;;;;;;3.78;87.53516;93394.65;;;;
2019/12/21 03:48:20;;;;;;;1;0.85;;;;;;;3.78;87.53516;93394.65;;;;
2019/12/21 03:49:21;;;;;;;1;0.85;;;;;;;3.78;87.53516;93394.65;;;;
2019/12/21 03:50:23;;;;;;;0.7;0.7;;;;;;;3.99;87.83105;93379.66;;;;
2019/12/21 03:51:24;;;;;;;0.7;0.7;;;;;;;3.99;87.83105;93379.66;;;;
2019/12/21 03:52:26;;;;;;;0.7;0.7;;;;;;;3.99;87.83105;93379.66;;;;
2019/12/21 03:53:28;;;;;;;0.7;0.7;;;;;;;3.99;87.83105;93379.66;;;;
2019/12/21 03:54:29;;;;;;;0.7;0.7;;;;;;;3.99;87.83105;93379.66;;;;
2019/12/21 03:55:30;;;;;;;0.7;0.7;;;;;;;3.99;87.83105;93379.66;;;;
2019/12/21 03:56:31;;;;;;;0.7;0.7;;;;;;;3.99;87.83105;93379.66;;;;
2019/12/21 03:57:32;;;;;;;0.7;0.7;;;;;;;3.99;87.83105;93379.66;;;;
2019/12/21 03:58:34;;;;;;;0.7;0.7;;;;;;;3.99;87.83105;93379.66;;;;
2019/12/21 03:59:35;;;;;;;0.7;0.7;;;;;;;3.99;87.83105;93379.66;;;;
2019/12/21 04:00:36;;;;;;;1.15;0.8;;;;;;;4.2;87.64063;93338.08;;;;
2019/12/21 04:01:37;;;;;;;1.15;0.8;;;;;;;4.2;87.64063;93338.08;;;;
2019/12/21 04:02:38;;;;;;;1.15;0.8;;;;;;;4.2;87.64063;93338.08;;;;
2019/12/21 04:03:43;;;;;;;1.15;0.8;;;;;;;4.2;87.64063;93338.08;;;;
2019/12/21 04:04:45;;;;;;;1.15;0.8;;;;;;;4.2;87.64063;93338.08;;;;
2019/12/21 04:05:49;;;;;;;1.15;0.8;;;;;;;4.2;87.64063;93338.08;;;;
2019/12/21 04:06:51;;;;;;;1.15;0.8;;;;;;;4.2;87.64063;93338.08;;;;
2019/12/21 04:07:52;;;;;;;1.15;0.8;;;;;;;4.2;87.64063;93338.08;;;;
2019/12/21 04:08:53;;;;;;;1.15;0.8;;;;;;;4.2;87.64063;93338.08;;;;
2019/12/21 04:09:54;;;;;;;1.15;0.8;;;;;;;4.2;87.64063;93338.08;;;;
2019/12/21 04:10:55;;;;;;;1.15;0.8;;;;;;;4.2;87.64063;93338.08;;;;
2019/12/21 04:11:56;;;;;;;2;1;;;;;;;4.25;87.72559;93339.48;;;;
2019/12/21 04:12:57;;;;;;;2;1;;;;;;;4.25;87.72559;93339.48;;;;
2019/12/21 04:13:59;;;;;;;2;1;;;;;;;4.25;87.72559;93339.48;;;;
2019/12/21 04:15:00;;;;;;;2;1;;;;;;;4.25;87.72559;93339.48;;;;
2019/12/21 04:16:01;;;;;;;2;1;;;;;;;4.25;87.72559;93339.48;;;;
2019/12/21 04:17:13;;;;;;;2;1;;;;;;;4.25;87.72559;93339.48;;;;
2019/12/21 04:18:16;;;;;;;2;1;;;;;;;4.25;87.72559;93339.48;;;;
2019/12/21 04:19:18;;;;;;;2;1;;;;;;;4.25;87.72559;93339.48;;;;
2019/12/21 04:20:19;;;;;;;2;1;;;;;;;4.25;87.72559;93339.48;;;;
2019/12/21 04:21:20;;;;;;;2;1;;;;;;;4.25;87.72559;93339.48;;;;
2019/12/21 04:22:21;;;;;;;1.65;0.9;;;;;;;4.38;88.35938;93326.31;;;;
2019/12/21 04:23:22;;;;;;;1.65;0.9;;;;;;;4.38;88.35938;93326.31;;;;
2019/12/21 04:24:24;;;;;;;1.65;0.9;;;;;;;4.38;88.35938;93326.31;;;;
2019/12/21 04:25:25;;;;;;;1.65;0.9;;;;;;;4.38;88.35938;93326.31;;;;
2019/12/21 04:26:26;;;;;;;1.65;0.9;;;;;;;4.38;88.35938;93326.31;;;;
2019/12/21 04:27:27;;;;;;;1.65;0.9;;;;;;;4.38;88.35938;93326.31;;;;
2019/12/21 04:28:28;;;;;;;1.65;0.9;;;;;;;4.38;88.35938;93326.31;;;;
2019/12/21 04:29:29;;;;;;;1.65;0.9;;;;;;;4.38;88.35938;93326.31;;;;
2019/12/21 04:30:30;;;;;;;1.65;0.9;;;;;;;4.38;88.35938;93326.31;;;;
2019/12/21 04:31:32;;;;;;;1.65;0.9;;;;;;;4.38;88.35938;93326.31;;;;
2019/12/21 04:32:33;;;;;;;1.5;0.9;;;;;;;4.42;88.40918;93298.47;;;;
2019/12/21 04:33:34;;;;;;;1.5;0.9;;;;;;;4.42;88.40918;93298.47;;;;
2019/12/21 04:34:35;;;;;;;1.5;0.9;;;;;;;4.42;88.40918;93298.47;;;;
2019/12/21 04:35:36;;;;;;;1.5;0.9;;;;;;;4.42;88.40918;93298.47;;;;
2019/12/21 04:36:37;;;;;;;1.5;0.9;;;;;;;4.42;88.40918;93298.47;;;;
2019/12/21 04:37:38;;;;;;;1.5;0.9;;;;;;;4.42;88.40918;93298.47;;;;
2019/12/21 04:38:39;;;;;;;1.5;0.9;;;;;;;4.42;88.40918;93298.47;;;;
2019/12/21 04:39:41;;;;;;;1.5;0.9;;;;;;;4.42;88.40918;93298.47;;;;
2019/12/21 04:40:42;;;;;;;1.5;0.9;;;;;;;4.42;88.40918;93298.47;;;;
2019/12/21 04:41:43;;;;;;;1.5;0.9;;;;;;;4.42;88.40918;93298.47;;;;
2019/12/21 04:42:44;;;;;;;1.5;0.9;;;;;;;4.42;88.40918;93298.47;;;;
2019/12/21 04:43:45;;;;;;;2.2;1;;;;;;;4.5;88.64746;93265.44;;;;
2019/12/21 04:44:46;;;;;;;2.2;1;;;;;;;4.5;88.64746;93265.44;;;;
2019/12/21 04:45:47;;;;;;;2.2;1;;;;;;;4.5;88.64746;93265.44;;;;
2019/12/21 04:46:49;;;;;;;2.2;1;;;;;;;4.5;88.64746;93265.44;;;;
2019/12/21 04:47:50;;;;;;;2.2;1;;;;;;;4.5;88.64746;93265.44;;;;
2019/12/21 04:48:51;;;;;;;2.2;1;;;;;;;4.5;88.64746;93265.44;;;;
2019/12/21 04:49:52;;;;;;;2.2;1;;;;;;;4.5;88.64746;93265.44;;;;
2019/12/21 04:50:53;;;;;;;2.2;1;;;;;;;4.5;88.64746;93265.44;;;;
2019/12/21 04:51:54;;;;;;;2.2;1;;;;;;;4.5;88.64746;93265.44;;;;
2019/12/21 04:52:55;;;;;;;2.2;1;;;;;;;4.5;88.64746;93265.44;;;;
2019/12/21 04:53:56;;;;;;;2.2;1;;;;;;;4.5;88.64746;93265.44;;;;
2019/12/21 04:54:58;;;;;;;2.2;1;;;;;;;4.5;88.64746;93265.44;;;;
2019/12/21 04:55:59;;;;;;;2.2;1;;;;;;;4.5;88.64746;93265.44;;;;
2019/12/21 04:57:00;;;;;;;2.2;1;;;;;;;4.5;88.64746;93265.44;;;;
2019/12/21 04:58:01;;;;;;;2.2;1;;;;;;;4.5;88.64746;93265.44;;;;
2019/12/21 04:59:02;;;;;;;2.2;1;;;;;;;4.5;88.64746;93265.44;;;;
2019/12/21 05:00:03;;;;;;;2.2;1;;;;;;;4.5;88.64746;93265.44;;;;
2019/12/21 05:01:04;;;;;;;2.2;1;;;;;;;4.5;88.64746;93265.44;;;;
2019/12/21 05:02:06;;;;;;;2.2;1;;;;;;;4.5;88.64746;93265.44;;;;
2019/12/21 05:03:07;;;;;;;2.2;1;;;;;;;4.5;88.64746;93265.44;;;;
2019/12/21 05:04:08;;;;;;;2.2;1;;;;;;;4.5;88.64746;93265.44;;;;
2019/12/21 05:05:09;;;;;;;1.4;1.1;;;;;;;4.59;88.69824;93213.69;;;;
2019/12/21 05:06:10;;;;;;;1.4;1.1;;;;;;;4.59;88.69824;93213.69;;;;
2019/12/21 05:07:12;;;;;;;1.4;1.1;;;;;;;4.59;88.69824;93213.69;;;;
2019/12/21 05:08:13;;;;;;;1.4;1.1;;;;;;;4.59;88.69824;93213.69;;;;
2019/12/21 05:09:14;;;;;;;1.4;1.1;;;;;;;4.59;88.69824;93213.69;;;;
2019/12/21 05:10:15;;;;;;;1.4;1.1;;;;;;;4.59;88.69824;93213.69;;;;
2019/12/21 05:11:16;;;;;;;1.4;1.1;;;;;;;4.59;88.69824;93213.69;;;;
2019/12/21 05:12:17;;;;;;;1.4;1.1;;;;;;;4.59;88.69824;93213.69;;;;
2019/12/21 05:13:18;;;;;;;1.4;1.1;;;;;;;4.59;88.69824;93213.69;;;;
2019/12/21 05:14:20;;;;;;;1.4;1.1;;;;;;;4.59;88.69824;93213.69;;;;
2019/12/21 05:15:21;;;;;;;1.6;1.1;;;;;;;4.49;89.04688;93255.82;;;;
2019/12/21 05:16:22;;;;;;;1.6;1.1;;;;;;;4.49;89.04688;93255.82;;;;
2019/12/21 05:17:23;;;;;;;1.6;1.1;;;;;;;4.49;89.04688;93255.82;;;;
2019/12/21 05:18:24;;;;;;;1.6;1.1;;;;;;;4.49;89.04688;93255.82;;;;
2019/12/21 05:19:25;;;;;;;1.6;1.1;;;;;;;4.49;89.04688;93255.82;;;;
2019/12/21 05:20:26;;;;;;;1.6;1.1;;;;;;;4.49;89.04688;93255.82;;;;
2019/12/21 05:21:27;;;;;;;1.6;1.1;;;;;;;4.49;89.04688;93255.82;;;;
2019/12/21 05:22:28;;;;;;;1.6;1.1;;;;;;;4.49;89.04688;93255.82;;;;
2019/12/21 05:23:29;;;;;;;1.6;1.1;;;;;;;4.49;89.04688;93255.82;;;;
2019/12/21 05:24:31;;;;;;;1.6;1.1;;;;;;;4.49;89.04688;93255.82;;;;
2019/12/21 05:25:32;;;;;;;1.6;1.1;;;;;;;4.49;89.04688;93255.82;;;;
2019/12/21 05:26:33;;;;;;;1.3;1.2;;;;;;;4.56;89.67773;93264.56;;;;
2019/12/21 05:27:34;;;;;;;1.3;1.2;;;;;;;4.56;89.67773;93264.56;;;;
2019/12/21 05:28:35;;;;;;;1.3;1.2;;;;;;;4.56;89.67773;93264.56;;;;
2019/12/21 05:29:36;;;;;;;1.3;1.2;;;;;;;4.56;89.67773;93264.56;;;;
2019/12/21 05:30:38;;;;;;;1.3;1.2;;;;;;;4.56;89.67773;93264.56;;;;
2019/12/21 05:31:39;;;;;;;1.3;1.2;;;;;;;4.56;89.67773;93264.56;;;;
2019/12/21 05:32:40;;;;;;;1.3;1.2;;;;;;;4.56;89.67773;93264.56;;;;
2019/12/21 05:33:41;;;;;;;1.3;1.2;;;;;;;4.56;89.67773;93264.56;;;;
2019/12/21 05:34:42;;;;;;;1.3;1.2;;;;;;;4.56;89.67773;93264.56;;;;
2019/12/21 05:35:43;;;;;;;1.3;1.2;;;;;;;4.56;89.67773;93264.56;;;;
2019/12/21 05:36:45;;;;;;;4;1.35;;;;;;;4.58;89.71582;93233.87;;;;
2019/12/21 05:37:46;;;;;;;4;1.35;;;;;;;4.58;89.71582;93233.87;;;;
2019/12/21 05:38:47;;;;;;;4;1.35;;;;;;;4.58;89.71582;93233.87;;;;
2019/12/21 05:39:48;;;;;;;4;1.35;;;;;;;4.58;89.71582;93233.87;;;;
2019/12/21 05:40:49;;;;;;;4;1.35;;;;;;;4.58;89.71582;93233.87;;;;
2019/12/21 05:41:50;;;;;;;4;1.35;;;;;;;4.58;89.71582;93233.87;;;;
2019/12/21 05:42:51;;;;;;;4;1.35;;;;;;;4.58;89.71582;93233.87;;;;
2019/12/21 05:43:52;;;;;;;4;1.35;;;;;;;4.58;89.71582;93233.87;;;;
2019/12/21 05:44:54;;;;;;;4;1.35;;;;;;;4.58;89.71582;93233.87;;;;
2019/12/21 05:45:55;;;;;;;4;1.35;;;;;;;4.58;89.71582;93233.87;;;;
2019/12/21 05:46:56;;;;;;;3.15;1.4;;;;;;;4.63;89.87402;93215.63;;;;
2019/12/21 05:47:57;;;;;;;3.15;1.4;;;;;;;4.63;89.87402;93215.63;;;;
2019/12/21 05:48:58;;;;;;;3.15;1.4;;;;;;;4.63;89.87402;93215.63;;;;
2019/12/21 05:49:59;;;;;;;3.15;1.4;;;;;;;4.63;89.87402;93215.63;;;;
2019/12/21 05:51:01;;;;;;;3.15;1.4;;;;;;;4.63;89.87402;93215.63;;;;
2019/12/21 05:52:02;;;;;;;3.15;1.4;;;;;;;4.63;89.87402;93215.63;;;;
2019/12/21 05:53:03;;;;;;;3.15;1.4;;;;;;;4.63;89.87402;93215.63;;;;
2019/12/21 05:54:04;;;;;;;3.15;1.4;;;;;;;4.63;89.87402;93215.63;;;;
2019/12/21 05:55:05;;;;;;;3.15;1.4;;;;;;;4.63;89.87402;93215.63;;;;
2019/12/21 05:56:06;;;;;;;3.15;1.4;;;;;;;4.63;89.87402;93215.63;;;;
2019/12/21 05:57:07;;;;;;;3.15;1.4;;;;;;;4.63;89.87402;93215.63;;;;
2019/12/21 05:58:08;;;;;;;2.4;1.55;;;;;;;4.62;90.06738;93231.92;;;;
2019/12/21 05:59:10;;;;;;;2.4;1.55;;;;;;;4.62;90.06738;93231.92;;;;
2019/12/21 06:00:11;;;;;;;2.4;1.55;;;;;;;4.62;90.06738;93231.92;;;;
2019/12/21 06:01:12;;;;;;;2.4;1.55;;;;;;;4.62;90.06738;93231.92;;;;
2019/12/21 06:02:13;;;;;;;2.4;1.55;;;;;;;4.62;90.06738;93231.92;;;;
2019/12/21 06:03:14;;;;;;;2.4;1.55;;;;;;;4.62;90.06738;93231.92;;;;
2019/12/21 06:04:15;;;;;;;2.4;1.55;;;;;;;4.62;90.06738;93231.92;;;;